Time;durP1;ratioP1;P1;durP2;ratioP2;P2;SDS_P1;SDS_P2;PMS_P1;PMS_P2;Temp;Humidity;BMP_temperature;BMP_pressure;BME280_temperature;BME280_humidity;BME280_pressure;Samples;Min_cycle;Max_cycle;Signal;HPM_P1;HPM_P2
2021/05/14 00:02:21;;;;;;;;;;;;;;;20.66;45.80;99964.06;1772228;80;20568;-77
2021/05/14 00:04:48;;;;;;;;;;;;;;;20.77;45.43;99965.14;1762274;81;21146;-77
2021/05/14 00:07:16;;;;;;;;;;;;;;;21.03;44.76;99962.47;1748654;82;20165;-77
2021/05/14 00:09:42;;;;;;;;;;;;;;;21.10;44.57;99958.24;1751321;81;20213;-77
2021/05/14 00:12:08;;;;;;;;;;;;;;;21.12;44.42;99954.73;1673155;84;20233;-77
2021/05/14 00:14:34;;;;;;;;;;;;;;;21.08;44.47;99948.14;1703454;84;20193;-77
2021/05/14 00:17:00;;;;;;;;;;;;;;;21.00;44.54;99946.06;1703254;84;20201;-78
2021/05/14 00:19:26;;;;;;;;;;;;;;;20.77;45.03;99940.11;1700842;82;20410;-78
2021/05/14 00:21:52;;;;;;;;;;;;;;;20.76;45.03;99941.19;1707647;84;20203;-78
2021/05/14 00:24:18;;;;;;;;;;;;;;;20.77;45.09;99936.56;1736373;82;20258;-78
2021/05/14 00:26:44;;;;;;;;;;;;;;;20.77;45.02;99936.03;1736451;82;20197;-78
2021/05/14 00:29:10;;;;;;;;;;;;;;;20.75;45.10;99938.14;1735536;82;20300;-78
2021/05/14 00:31:36;;;;;;;;;;;;;;;20.71;45.04;99941.07;1736203;82;20248;-78
2021/05/14 00:34:02;;;;;;;;;;;;;;;20.72;44.88;99935.92;1748197;81;20162;-79
2021/05/14 00:36:28;;;;;;;;;;;;;;;20.71;44.87;99926.61;1752474;82;20138;-78
2021/05/14 00:38:54;;;;;;;;;;;;;;;20.73;44.74;99928.04;1751751;81;20244;-79
2021/05/14 00:41:20;;;;;;;;;;;;;;;20.73;44.94;99923.95;1751983;82;20216;-79
2021/05/14 00:43:46;;;;;;;;;;;;;;;20.76;45.21;99925.39;1751905;82;20229;-78
2021/05/14 00:46:12;;;;;;;;;;;;;;;20.75;45.33;99923.17;1747650;81;20190;-78
2021/05/14 00:48:38;;;;;;;;;;;;;;;20.80;45.27;99920.27;1736244;82;20237;-78
2021/05/14 00:51:06;;;;;;;;;;;;;;;20.87;45.10;99920.98;1735925;82;20298;-78
2021/05/14 00:53:33;;;;;;;;;;;;;;;20.87;45.01;99923.71;1736412;82;20222;-78
2021/05/14 00:55:59;;;;;;;;;;;;;;;20.85;45.00;99923.10;1736406;82;20202;-78
2021/05/14 00:58:25;;;;;;;;;;;;;;;20.85;45.03;99917.66;1705427;82;20230;-79
2021/05/14 01:00:51;;;;;;;;;;;;;;;20.86;45.09;99926.97;1736265;82;20238;-78
2021/05/14 01:03:17;;;;;;;;;;;;;;;20.88;45.20;99926.72;1736385;82;20257;-78
2021/05/14 01:05:42;;;;;;;;;;;;;;;20.82;45.21;99922.23;1736248;82;20209;-78
2021/05/14 01:08:09;;;;;;;;;;;;;;;20.78;45.15;99917.27;1736319;82;20357;-78
2021/05/14 01:10:37;;;;;;;;;;;;;;;20.80;45.14;99915.66;1705725;82;20298;-78
2021/05/14 01:13:04;;;;;;;;;;;;;;;20.83;45.07;99908.92;1736410;82;20194;-78
2021/05/14 01:15:29;;;;;;;;;;;;;;;20.81;45.08;99908.34;1736419;82;20269;-77
2021/05/14 01:17:55;;;;;;;;;;;;;;;20.77;44.86;99906.09;1766771;81;20716;-78
2021/05/14 01:20:26;;;;;;;;;;;;;;;20.76;44.76;99907.16;1753332;81;20245;-78
2021/05/14 01:22:52;;;;;;;;;;;;;;;20.74;44.65;99909.81;1736038;82;20262;-77
2021/05/14 01:25:18;;;;;;;;;;;;;;;20.72;44.58;99911.95;1736192;82;20583;-77
2021/05/14 01:27:45;;;;;;;;;;;;;;;20.66;44.63;99902.83;1744829;82;20221;-77
2021/05/14 01:30:13;;;;;;;;;;;;;;;20.67;44.65;99908.59;1750627;81;20217;-77
2021/05/14 01:32:38;;;;;;;;;;;;;;;20.68;44.78;99900.72;1736534;80;20274;-78
2021/05/14 01:35:06;;;;;;;;;;;;;;;20.66;44.92;99905.55;1736112;82;20282;-77
2021/05/14 01:37:31;;;;;;;;;;;;;;;20.67;44.98;99899.06;1735853;82;20233;-77
2021/05/14 01:39:57;;;;;;;;;;;;;;;20.69;45.03;99902.36;1735855;82;20230;-77
2021/05/14 01:42:23;;;;;;;;;;;;;;;20.77;44.99;99902.00;1742234;82;20307;-77
2021/05/14 01:44:49;;;;;;;;;;;;;;;20.76;45.17;99894.91;1740921;82;20185;-77
2021/05/14 01:47:16;;;;;;;;;;;;;;;20.80;45.32;99906.12;1760034;81;20241;-77
2021/05/14 01:49:42;;;;;;;;;;;;;;;20.83;45.25;99900.22;1766946;80;20254;-77
2021/05/14 01:52:09;;;;;;;;;;;;;;;20.83;45.19;99902.11;1747134;81;20210;-77
2021/05/14 01:54:35;;;;;;;;;;;;;;;20.84;45.15;99896.95;1735978;82;20293;-77
2021/05/14 01:57:01;;;;;;;;;;;;;;;20.88;45.15;99904.94;1735715;82;20198;-77
2021/05/14 01:59:27;;;;;;;;;;;;;;;20.88;45.37;99899.50;1735753;82;20602;-78
2021/05/14 02:01:53;;;;;;;;;;;;;;;20.86;45.66;99905.73;1736048;82;20253;-78
2021/05/14 02:04:19;;;;;;;;;;;;;;;20.86;45.81;99897.56;1736268;82;20209;-76
2021/05/14 02:06:45;;;;;;;;;;;;;;;20.88;46.00;99894.05;1736445;82;20245;-77
2021/05/14 02:09:12;;;;;;;;;;;;;;;20.85;46.23;99893.16;1748601;82;20359;-76
2021/05/14 02:11:37;;;;;;;;;;;;;;;20.84;46.24;99888.79;1752089;81;20173;-76
2021/05/14 02:14:04;;;;;;;;;;;;;;;20.85;46.33;99895.37;1752543;82;20153;-77
2021/05/14 02:16:30;;;;;;;;;;;;;;;20.82;46.42;99892.30;1746404;81;20586;-77
2021/05/14 02:18:57;;;;;;;;;;;;;;;20.77;46.59;99893.02;1736329;80;20241;-76
2021/05/14 02:21:23;;;;;;;;;;;;;;;20.74;46.66;99886.67;1736061;82;20210;-76
2021/05/14 02:23:49;;;;;;;;;;;;;;;20.73;46.73;99884.49;1736054;82;20210;-76
2021/05/14 02:26:15;;;;;;;;;;;;;;;20.73;46.94;99880.41;1743965;82;20193;-78
2021/05/14 02:28:41;;;;;;;;;;;;;;;20.69;47.19;99877.87;1748750;81;20263;-77
2021/05/14 02:31:07;;;;;;;;;;;;;;;20.74;47.25;99877.16;1742812;81;20285;-77
2021/05/14 02:33:33;;;;;;;;;;;;;;;20.74;47.27;99868.98;1746088;82;20206;-77
2021/05/14 02:35:59;;;;;;;;;;;;;;;20.81;47.11;99868.88;1735970;82;20202;-77
2021/05/14 02:38:25;;;;;;;;;;;;;;;20.77;47.10;99869.34;1735990;82;20692;-78
2021/05/14 02:40:51;;;;;;;;;;;;;;;20.81;47.03;99872.42;1736206;82;20230;-79
2021/05/14 02:43:17;;;;;;;;;;;;;;;20.81;47.04;99863.43;1736371;82;20284;-78
2021/05/14 02:45:43;;;;;;;;;;;;;;;20.83;46.95;99855.84;1736138;80;20268;-78
2021/05/14 02:48:09;;;;;;;;;;;;;;;20.76;47.02;99852.73;1735488;82;20254;-78
2021/05/14 02:50:35;;;;;;;;;;;;;;;20.74;47.09;99858.92;1735963;80;20597;-78
2021/05/14 02:53:01;;;;;;;;;;;;;;;20.76;47.04;99846.45;1736016;82;20226;-78
2021/05/14 02:55:27;;;;;;;;;;;;;;;20.75;47.13;99843.42;1736173;82;20221;-78
2021/05/14 02:57:53;;;;;;;;;;;;;;;20.74;47.27;99848.04;1736223;80;20182;-78
2021/05/14 03:00:20;;;;;;;;;;;;;;;20.74;47.39;99849.40;1735881;82;20260;-79
2021/05/14 03:02:46;;;;;;;;;;;;;;;20.72;47.48;99848.00;1736200;82;20574;-78
2021/05/14 03:05:12;;;;;;;;;;;;;;;20.73;47.60;99843.67;1735058;82;20207;-78
2021/05/14 03:07:39;;;;;;;;;;;;;;;20.72;47.71;99843.38;1704518;82;20285;-77
2021/05/14 03:10:07;;;;;;;;;;;;;;;20.71;47.83;99853.98;1734563;82;20677;-78
2021/05/14 03:12:33;;;;;;;;;;;;;;;20.75;47.84;99846.14;1735049;82;20299;-78
2021/05/14 03:14:59;;;;;;;;;;;;;;;20.75;47.88;99848.86;1735317;82;20326;-78
2021/05/14 03:17:25;;;;;;;;;;;;;;;20.73;47.88;99845.03;1735285;82;20285;-78
2021/05/14 03:19:51;;;;;;;;;;;;;;;20.70;47.77;99854.20;1735406;82;20351;-78
2021/05/14 03:22:17;;;;;;;;;;;;;;;20.68;47.63;99853.09;1737089;81;20257;-78
2021/05/14 03:24:43;;;;;;;;;;;;;;;20.62;47.54;99849.97;1737100;82;20339;-78
2021/05/14 03:27:09;;;;;;;;;;;;;;;20.54;47.58;99847.61;1736690;82;20285;-78
2021/05/14 03:29:35;;;;;;;;;;;;;;;20.54;47.59;99848.97;1736664;82;20257;-78
2021/05/14 03:32:03;;;;;;;;;;;;;;;20.54;47.58;99854.41;1737216;80;20205;-78
2021/05/14 03:34:29;;;;;;;;;;;;;;;20.56;47.44;99850.08;1736997;82;20318;-78
2021/05/14 03:36:55;;;;;;;;;;;;;;;20.50;47.36;99847.79;1735404;82;20273;-77
2021/05/14 03:39:22;;;;;;;;;;;;;;;20.49;47.36;99847.50;1735241;82;20194;-78
2021/05/14 03:42:04;;;;;;;;;;;;;;;20.49;47.21;99857.02;1735073;82;20661;-78
2021/05/14 03:44:16;;;;;;;;;;;;;;;20.47;47.14;99853.16;1731825;80;20639;-79
2021/05/14 03:46:42;;;;;;;;;;;;;;;20.43;47.24;99845.68;1742893;82;20717;-76
2021/05/14 03:49:08;;;;;;;;;;;;;;;20.42;47.25;99848.11;1748742;80;20307;-77
2021/05/14 03:51:38;;;;;;;;;;;;;;;20.45;47.19;99847.65;1752537;81;20216;-77
2021/05/14 03:54:04;;;;;;;;;;;;;;;20.43;47.15;99851.13;1751356;80;20308;-77
2021/05/14 03:56:30;;;;;;;;;;;;;;;20.44;47.09;99844.64;1751101;80;20635;-77
2021/05/14 03:58:58;;;;;;;;;;;;;;;20.50;46.95;99843.70;1750413;81;20220;-78
2021/05/14 04:01:24;;;;;;;;;;;;;;;20.51;46.79;99837.20;1750232;81;20316;-78
2021/05/14 04:03:50;;;;;;;;;;;;;;;20.55;46.46;99834.83;1751632;80;20180;-78
2021/05/14 04:06:17;;;;;;;;;;;;;;;20.53;46.49;99841.88;1742949;80;20397;-79
2021/05/14 04:08:42;;;;;;;;;;;;;;;20.47;46.67;99838.70;1738959;80;20498;-78
2021/05/14 04:16:27;;;;;;;;;;;;;;;20.43;46.96;99826.64;1725990;82;20300;-78
2021/05/14 04:18:53;;;;;;;;;;;;;;;20.42;47.02;99816.83;1736791;80;20314;-78
2021/05/14 04:21:19;;;;;;;;;;;;;;;20.41;47.10;99819.27;1741053;80;20250;-76
2021/05/14 04:23:45;;;;;;;;;;;;;;;20.47;47.20;99821.02;1750583;80;20200;-76
2021/05/14 04:26:11;;;;;;;;;;;;;;;20.59;47.10;99821.05;1748612;80;20269;-76
2021/05/14 04:28:37;;;;;;;;;;;;;;;20.64;46.97;99819.25;1755001;80;20666;-76
2021/05/14 04:31:05;;;;;;;;;;;;;;;20.70;47.00;99811.48;1713933;82;20292;-76
2021/05/14 04:33:31;;;;;;;;;;;;;;;20.79;47.03;99811.94;1669985;84;20294;-78
2021/05/14 04:35:57;;;;;;;;;;;;;;;20.89;46.92;99812.67;1680285;84;20353;-77
2021/05/14 04:38:22;;;;;;;;;;;;;;;20.99;46.76;99810.17;1741699;81;20209;-77
2021/05/14 04:40:48;;;;;;;;;;;;;;;21.11;46.60;99812.30;1750891;81;20461;-76
2021/05/14 04:43:15;;;;;;;;;;;;;;;21.17;46.38;99804.54;1754275;80;20206;-77
2021/05/14 04:45:42;;;;;;;;;;;;;;;21.25;46.17;99808.74;1749062;80;20248;-77
2021/05/14 04:48:10;;;;;;;;;;;;;;;21.29;45.98;99810.73;1744990;80;20256;-77
2021/05/14 04:50:37;;;;;;;;;;;;;;;21.32;45.67;99812.73;1757067;80;20250;-77
2021/05/14 04:53:08;;;;;;;;;;;;;;;21.32;45.60;99810.83;1779806;80;20234;-75
2021/05/14 04:55:34;;;;;;;;;;;;;;;21.32;45.48;99815.45;1771973;79;20395;-77
2021/05/14 04:58:00;;;;;;;;;;;;;;;21.30;45.17;99807.47;1739302;80;20789;-76
2021/05/14 05:00:26;;;;;;;;;;;;;;;21.27;45.22;99812.89;1736583;80;20264;-79
2021/05/14 05:02:52;;;;;;;;;;;;;;;21.24;45.25;99813.91;1746519;80;20431;-77
2021/05/14 05:05:19;;;;;;;;;;;;;;;21.19;45.35;99802.38;1759135;80;20255;-77
2021/05/14 05:07:45;;;;;;;;;;;;;;;21.18;45.42;99799.91;1777314;80;20239;-76
2021/05/14 05:10:11;;;;;;;;;;;;;;;21.20;45.55;99797.22;1743054;79;20295;-75
2021/05/14 05:12:37;;;;;;;;;;;;;;;21.25;45.67;99791.86;1758762;80;20626;-76
2021/05/14 05:15:05;;;;;;;;;;;;;;;21.33;45.52;99792.05;1751356;80;20300;-77
2021/05/14 05:17:31;;;;;;;;;;;;;;;21.34;45.63;99788.24;1753034;80;20163;-78
2021/05/14 05:19:59;;;;;;;;;;;;;;;21.41;45.63;99789.47;1745859;80;20198;-77
2021/05/14 05:22:25;;;;;;;;;;;;;;;21.39;45.68;99776.09;1745326;80;20184;-77
2021/05/14 05:24:51;;;;;;;;;;;;;;;21.55;45.49;99783.16;1746882;80;20214;-77
2021/05/14 05:27:17;;;;;;;;;;;;;;;21.56;45.46;99786.99;1747474;80;20233;-77
2021/05/14 05:29:43;;;;;;;;;;;;;;;21.58;45.34;99787.59;1749632;80;20190;-77
2021/05/14 05:32:09;;;;;;;;;;;;;;;21.59;45.35;99797.95;1745280;80;20199;-77
2021/05/14 05:34:35;;;;;;;;;;;;;;;21.57;45.47;99796.81;1754654;80;20220;-77
2021/05/14 05:37:01;;;;;;;;;;;;;;;21.57;45.42;99804.98;1747373;80;20241;-78
2021/05/14 05:39:27;;;;;;;;;;;;;;;21.50;45.50;99805.16;1753024;80;20192;-77
2021/05/14 05:41:53;;;;;;;;;;;;;;;21.46;45.71;99803.17;1742045;80;20186;-77
2021/05/14 05:44:19;;;;;;;;;;;;;;;21.40;45.83;99806.89;1738293;80;20186;-78
2021/05/14 05:46:46;;;;;;;;;;;;;;;21.36;45.93;99795.65;1746172;80;20159;-78
2021/05/14 05:49:13;;;;;;;;;;;;;;;21.36;46.12;99782.03;1748703;80;20271;-77
2021/05/14 05:51:38;;;;;;;;;;;;;;;21.38;46.14;99777.69;1750187;80;20159;-78
2021/05/14 05:54:05;;;;;;;;;;;;;;;21.41;46.18;99767.67;1750415;80;20186;-78
2021/05/14 05:56:32;;;;;;;;;;;;;;;21.46;46.25;99765.03;1753424;80;20186;-78
2021/05/14 05:58:58;;;;;;;;;;;;;;;21.50;46.43;99768.91;1749301;80;20221;-78
2021/05/14 06:01:26;;;;;;;;;;;;;;;21.53;46.43;99765.70;1746934;80;20188;-78
2021/05/14 06:03:52;;;;;;;;;;;;;;;21.58;46.44;99768.52;1744721;80;20211;-78
2021/05/14 06:06:18;;;;;;;;;;;;;;;21.64;46.34;99771.60;1742951;80;20281;-77
2021/05/14 06:08:46;;;;;;;;;;;;;;;21.53;46.55;99784.78;1745418;80;20284;-78
2021/05/14 06:11:16;;;;;;;;;;;;;;;21.50;46.61;99773.83;1742888;80;20615;-78
2021/05/14 06:13:44;;;;;;;;;;;;;;;21.53;46.51;99768.44;1713498;81;20250;-78
2021/05/14 06:16:10;;;;;;;;;;;;;;;21.52;46.52;99766.22;1744909;80;20230;-77
2021/05/14 06:18:38;;;;;;;;;;;;;;;21.54;46.61;99763.27;1747313;80;20339;-77
2021/05/14 06:21:07;;;;;;;;;;;;;;;21.56;46.61;99758.38;1746857;80;20313;-77
2021/05/14 06:23:36;;;;;;;;;;;;;;;21.59;46.65;99744.27;1720290;80;20309;-76
2021/05/14 06:26:03;;;;;;;;;;;;;;;21.61;46.54;99738.56;1752970;80;20546;-76
2021/05/14 06:28:29;;;;;;;;;;;;;;;21.62;46.51;99751.96;1755539;80;20166;-76
2021/05/14 06:30:55;;;;;;;;;;;;;;;21.62;46.62;99756.05;1747083;81;20681;-76
2021/05/14 06:33:21;;;;;;;;;;;;;;;21.59;46.62;99762.52;1746516;80;20178;-76
2021/05/14 06:35:49;;;;;;;;;;;;;;;21.54;46.73;99761.91;1751978;80;20176;-76
2021/05/14 06:38:15;;;;;;;;;;;;;;;21.53;46.85;99753.45;1750004;80;20312;-76
2021/05/14 06:40:41;;;;;;;;;;;;;;;21.56;46.82;99756.20;1749244;80;20265;-77
2021/05/14 06:43:08;;;;;;;;;;;;;;;21.61;46.82;99745.38;1747773;80;20288;-77
2021/05/14 06:45:34;;;;;;;;;;;;;;;21.72;46.57;99763.02;1744005;80;20424;-77
2021/05/14 06:48:04;;;;;;;;;;;;;;;21.83;46.45;99744.91;1746315;80;20268;-77
2021/05/14 06:50:34;;;;;;;;;;;;;;;21.93;46.11;99746.95;1750649;80;20284;-78
2021/05/14 06:53:04;;;;;;;;;;;;;;;21.99;45.87;99747.34;1750287;80;20157;-78
2021/05/14 06:55:30;;;;;;;;;;;;;;;22.00;45.76;99748.98;1722383;80;20204;-78
2021/05/14 06:57:57;;;;;;;;;;;;;;;21.98;45.91;99736.13;1721492;80;20196;-78
2021/05/14 07:00:25;;;;;;;;;;;;;;;22.06;45.94;99742.52;1746985;80;20211;-75
2021/05/14 07:02:52;;;;;;;;;;;;;;;22.17;45.69;99738.91;1747868;80;20161;-77
2021/05/14 07:05:18;;;;;;;;;;;;;;;22.27;45.63;99745.86;1751392;80;20177;-77
2021/05/14 07:07:46;;;;;;;;;;;;;;;22.47;45.29;99735.73;1749439;80;20170;-77
2021/05/14 07:10:21;;;;;;;;;;;;;;;22.67;45.11;99735.17;1718939;80;20229;-78
2021/05/14 07:12:57;;;;;;;;;;;;;;;22.83;44.82;99736.16;1741402;80;20213;-77
2021/05/14 07:15:23;;;;;;;;;;;;;;;22.98;43.87;99742.34;1743398;80;20177;-78
2021/05/14 07:17:49;;;;;;;;;;;;;;;22.99;43.62;99735.83;1745116;80;20178;-78
2021/05/14 07:20:15;;;;;;;;;;;;;;;23.00;43.66;99748.39;1749371;80;20309;-76
2021/05/14 07:22:41;;;;;;;;;;;;;;;22.90;43.75;99739.55;1753243;80;20631;-78
2021/05/14 07:25:08;;;;;;;;;;;;;;;22.84;43.95;99737.80;1750553;80;20214;-77
2021/05/14 07:27:39;;;;;;;;;;;;;;;22.81;44.22;99733.41;1750744;80;20177;-77
2021/05/14 07:30:12;;;;;;;;;;;;;;;22.70;44.18;99738.73;1720370;81;20754;-78
2021/05/14 07:32:56;;;;;;;;;;;;;;;22.51;44.59;99734.15;1749362;80;20251;-77
2021/05/14 07:35:23;;;;;;;;;;;;;;;22.37;44.99;99734.79;1719388;80;20184;-77
2021/05/14 07:37:50;;;;;;;;;;;;;;;22.27;45.38;99736.84;1758363;79;20292;-78
2021/05/14 07:40:17;;;;;;;;;;;;;;;22.57;44.83;99739.12;1748368;80;20164;-78
2021/05/14 07:42:43;;;;;;;;;;;;;;;22.31;45.40;99734.45;1745174;80;20564;-77
2021/05/14 07:45:10;;;;;;;;;;;;;;;22.18;45.59;99735.09;1721190;80;20229;-78
2021/05/14 07:47:37;;;;;;;;;;;;;;;22.04;45.94;99733.77;1746792;80;20245;-77
2021/05/14 07:50:03;;;;;;;;;;;;;;;22.02;45.96;99746.82;1746018;80;20328;-77
2021/05/14 07:52:29;;;;;;;;;;;;;;;22.02;46.05;99740.00;1743599;80;20234;-77
2021/05/14 07:54:59;;;;;;;;;;;;;;;22.06;46.06;99739.79;1723989;81;20502;-77
2021/05/14 07:57:26;;;;;;;;;;;;;;;22.35;45.75;99743.78;1747457;80;20177;-77
2021/05/14 07:59:53;;;;;;;;;;;;;;;22.43;45.74;99735.13;1694405;80;20269;-77
2021/05/14 08:02:19;;;;;;;;;;;;;;;22.61;45.25;99736.72;1749166;80;20802;-77
2021/05/14 08:04:45;;;;;;;;;;;;;;;22.78;44.80;99738.29;1747540;80;20158;-78
2021/05/14 08:07:11;;;;;;;;;;;;;;;22.92;44.64;99740.66;1756410;80;20233;-77
2021/05/14 08:09:38;;;;;;;;;;;;;;;23.09;44.47;99730.45;1754488;80;20649;-77
2021/05/14 08:12:08;;;;;;;;;;;;;;;23.29;44.23;99723.80;1746162;80;20219;-78
2021/05/14 08:14:36;;;;;;;;;;;;;;;23.51;43.82;99729.73;1744697;80;20826;-80
2021/05/14 08:17:02;;;;;;;;;;;;;;;23.73;42.91;99741.42;1754657;80;20246;-79
2021/05/14 08:19:29;;;;;;;;;;;;;;;24.20;42.03;99738.43;1749735;80;20286;-78
2021/05/14 08:21:55;;;;;;;;;;;;;;;24.40;41.90;99737.76;1750153;80;20440;-77
2021/05/14 08:24:21;;;;;;;;;;;;;;;24.60;41.58;99728.80;1749566;79;20213;-79
2021/05/14 08:26:47;;;;;;;;;;;;;;;24.48;41.71;99727.64;1747759;80;20310;-78
2021/05/14 08:29:13;;;;;;;;;;;;;;;24.56;41.83;99736.72;1746509;80;20186;-78
2021/05/14 08:31:39;;;;;;;;;;;;;;;24.71;41.54;99734.05;1750752;80;20184;-78
2021/05/14 08:34:06;;;;;;;;;;;;;;;24.97;40.67;99739.58;1745960;80;20238;-78
2021/05/14 08:36:34;;;;;;;;;;;;;;;25.06;40.27;99740.70;1747452;80;20193;-78
2021/05/14 08:39:04;;;;;;;;;;;;;;;25.13;39.65;99739.93;1746187;80;20209;-78
2021/05/14 08:41:30;;;;;;;;;;;;;;;25.27;39.47;99728.70;1749053;80;20214;-78
2021/05/14 08:43:58;;;;;;;;;;;;;;;25.41;38.88;99735.02;1750225;80;20167;-77
2021/05/14 08:46:26;;;;;;;;;;;;;;;25.45;38.35;99730.64;1721596;81;20253;-77
2021/05/14 08:48:54;;;;;;;;;;;;;;;25.42;38.19;99721.03;1751405;80;20235;-76
2021/05/14 08:51:26;;;;;;;;;;;;;;;25.55;38.25;99725.97;1751362;80;20201;-76
2021/05/14 08:53:50;;;;;;;;;;;;;;;25.75;37.83;99725.67;1716274;80;20492;-76
2021/05/14 08:56:16;;;;;;;;;;;;;;;25.44;38.87;99726.26;1745095;80;20357;-77
2021/05/14 08:58:42;;;;;;;;;;;;;;;25.41;38.44;99728.17;1718019;80;20208;-77
2021/05/14 09:01:11;;;;;;;;;;;;;;;25.41;38.19;99728.17;1738247;80;20313;-77
2021/05/14 09:03:58;;;;;;;;;;;;;;;25.36;37.98;99726.80;1746914;80;20590;-78
2021/05/14 09:06:30;;;;;;;;;;;;;;;25.32;38.14;99721.58;1738951;80;20304;-77
2021/05/14 09:08:57;;;;;;;;;;;;;;;25.32;38.25;99714.18;1738000;80;20300;-77
2021/05/14 09:11:38;;;;;;;;;;;;;;;25.35;37.93;99712.27;1745781;80;20262;-78
2021/05/14 09:16:39;;;;;;;;;;;;;;;25.33;37.72;99719.11;1713895;80;20239;-76
2021/05/14 09:19:09;;;;;;;;;;;;;;;25.26;37.64;99715.28;1710152;80;20223;-77
2021/05/14 09:21:38;;;;;;;;;;;;;;;25.33;37.69;99710.34;1733278;80;20145;-77
2021/05/14 09:24:05;;;;;;;;;;;;;;;25.13;37.87;99707.59;1718363;80;20220;-77
2021/05/14 09:26:32;;;;;;;;;;;;;;;25.12;37.96;99710.03;1702589;80;20550;-77
2021/05/14 09:28:59;;;;;;;;;;;;;;;24.97;38.49;99710.27;1709597;82;20193;-76
2021/05/14 09:31:30;;;;;;;;;;;;;;;24.94;38.17;99715.48;1752007;80;20142;-76
2021/05/14 09:33:58;;;;;;;;;;;;;;;24.92;38.61;99705.33;1749414;80;20194;-76
2021/05/14 09:36:26;;;;;;;;;;;;;;;24.97;39.15;99708.89;1749465;80;20226;-77
2021/05/14 09:38:56;;;;;;;;;;;;;;;24.99;38.54;99696.31;1759162;80;20232;-77
2021/05/14 09:41:29;;;;;;;;;;;;;;;24.98;38.18;99693.27;1751426;80;20231;-78
2021/05/14 09:44:18;;;;;;;;;;;;;;;24.98;37.44;99696.02;1754563;80;20146;-78
2021/05/14 09:46:35;;;;;;;;;;;;;;;25.00;37.22;99694.66;1728946;80;20309;-77
2021/05/14 09:49:18;;;;;;;;;;;;;;;25.05;37.01;99693.84;1742435;80;20668;-78
2021/05/14 09:52:17;;;;;;;;;;;;;;;25.03;37.07;99696.05;1717511;80;20149;-77
2021/05/14 09:55:03;;;;;;;;;;;;;;;25.01;37.00;99694.11;1697776;82;20205;-78
2021/05/14 09:57:39;;;;;;;;;;;;;;;24.99;37.20;99692.20;1733592;81;20610;-77
2021/05/14 10:00:04;;;;;;;;;;;;;;;24.99;36.89;99697.13;1741870;81;20297;-78
2021/05/14 10:02:44;;;;;;;;;;;;;;;;;;;;;
2021/05/14 10:07:46;;;;;;;;;;;;;;;24.97;37.18;99691.63;1727387;80;20190;-78
2021/05/14 10:10:14;;;;;;;;;;;;;;;24.97;37.29;99689.72;1751270;80;20236;-76
2021/05/14 10:12:42;;;;;;;;;;;;;;;24.97;37.36;99690.27;1747592;80;20239;-77
2021/05/14 10:15:13;;;;;;;;;;;;;;;25.33;37.18;99698.55;1749655;81;20308;-76
2021/05/14 10:17:53;;;;;;;;;;;;;;;25.43;36.87;99698.55;1696842;81;20195;-76
2021/05/14 10:20:19;;;;;;;;;;;;;;;25.47;36.52;99692.78;1738701;81;20242;-76
2021/05/14 10:22:48;;;;;;;;;;;;;;;25.48;36.43;99692.53;1755199;80;20214;-76
2021/05/14 10:26:00;;;;;;;;;;;;;;;25.48;36.38;99686.20;1704068;80;20200;-76
2021/05/14 10:28:26;;;;;;;;;;;;;;;25.49;36.12;99694.72;1744767;80;20633;-77
2021/05/14 10:31:09;;;;;;;;;;;;;;;25.09;36.86;99682.65;1750262;80;20205;-76
2021/05/14 10:33:54;;;;;;;;;;;;;;;25.07;36.92;99680.68;1747418;80;20508;-77
2021/05/14 10:36:26;;;;;;;;;;;;;;;25.08;36.72;99681.02;1752147;80;20162;-77
2021/05/14 10:39:15;;;;;;;;;;;;;;;25.07;36.65;99683.42;1748355;81;20190;-76
2021/05/14 10:41:50;;;;;;;;;;;;;;;25.08;37.05;99683.75;1753864;80;20233;-76
2021/05/14 10:44:16;;;;;;;;;;;;;;;25.10;36.83;99684.84;1757818;80;20183;-77
2021/05/14 10:46:42;;;;;;;;;;;;;;;25.13;36.69;99685.67;1755445;80;20262;-77
2021/05/14 10:49:13;;;;;;;;;;;;;;;25.12;36.89;99682.11;1751804;81;20689;-77
2021/05/14 10:51:52;;;;;;;;;;;;;;;25.47;35.96;99690.05;1725149;80;20693;-78
2021/05/14 10:54:42;;;;;;;;;;;;;;;25.52;35.78;99690.86;1749435;80;20452;-77
2021/05/14 10:57:12;;;;;;;;;;;;;;;25.51;35.87;99682.36;1749596;80;20641;-77
2021/05/14 10:59:41;;;;;;;;;;;;;;;25.50;35.82;99685.39;1752404;80;20194;-76
2021/05/14 11:02:28;;;;;;;;;;;;;;;25.48;35.57;99685.67;1747048;80;20222;-76
2021/05/14 11:04:54;;;;;;;;;;;;;;;25.48;35.94;99688.42;1747352;80;20274;-76
2021/05/14 11:07:40;;;;;;;;;;;;;;;25.49;35.90;99689.23;1745859;80;20204;-77
2021/05/14 11:10:26;;;;;;;;;;;;;;;25.49;35.60;99685.12;1749291;80;20321;-77
2021/05/14 11:12:53;;;;;;;;;;;;;;;25.48;35.37;99688.94;1748863;81;20259;-77
2021/05/14 11:15:23;;;;;;;;;;;;;;;25.47;35.42;99682.64;1748601;80;20275;-77
2021/05/14 11:18:17;;;;;;;;;;;;;;;25.46;35.38;99675.52;1743550;80;20308;-76
2021/05/14 11:20:47;;;;;;;;;;;;;;;25.47;35.28;99674.96;1747134;80;20297;-79
2021/05/14 11:23:38;;;;;;;;;;;;;;;25.51;35.58;99677.43;1744345;80;20280;-76
2021/05/14 11:26:27;;;;;;;;;;;;;;;25.53;35.69;99674.70;1740542;81;20567;-78
2021/05/14 11:28:53;;;;;;;;;;;;;;;25.57;35.42;99674.95;1743624;81;20337;-77
2021/05/14 11:31:22;;;;;;;;;;;;;;;25.56;35.42;99679.61;1750843;80;20302;-77
2021/05/14 11:33:51;;;;;;;;;;;;;;;25.47;35.59;99689.49;1754729;80;20625;-77
2021/05/14 11:36:17;;;;;;;;;;;;;;;25.13;36.22;99687.05;1710195;82;20675;-77
2021/05/14 11:38:48;;;;;;;;;;;;;;;25.08;36.54;99680.19;1714265;82;20199;-77
2021/05/14 11:41:26;;;;;;;;;;;;;;;25.04;36.84;99672.47;1677422;82;20649;-78
2021/05/14 11:43:59;;;;;;;;;;;;;;;25.04;36.81;99664.80;1715594;82;20292;-78
2021/05/14 11:46:26;;;;;;;;;;;;;;;25.06;36.99;99665.34;1750986;80;20703;-77
2021/05/14 11:48:53;;;;;;;;;;;;;;;25.09;36.84;99666.76;1748803;80;20263;-77
2021/05/14 11:51:19;;;;;;;;;;;;;;;25.12;36.80;99667.56;1755464;80;20159;-77
2021/05/14 11:53:46;;;;;;;;;;;;;;;25.14;36.34;99665.39;1757849;80;20205;-78
2021/05/14 11:56:12;;;;;;;;;;;;;;;25.19;36.08;99660.72;1750971;80;20188;-77
2021/05/14 11:58:39;;;;;;;;;;;;;;;25.26;35.39;99670.05;1760384;80;20150;-77
2021/05/14 12:01:07;;;;;;;;;;;;;;;25.35;35.58;99677.19;1742594;80;20238;-77
2021/05/14 12:03:34;;;;;;;;;;;;;;;25.41;35.29;99676.89;1751854;80;20633;-77
2021/05/14 12:06:12;;;;;;;;;;;;;;;25.50;35.20;99671.13;1755795;80;20302;-77
2021/05/14 12:08:38;;;;;;;;;;;;;;;25.56;35.20;99670.56;1751944;80;20185;-77
2021/05/14 12:11:13;;;;;;;;;;;;;;;25.62;35.17;99668.11;1756572;80;20257;-79
2021/05/14 12:13:40;;;;;;;;;;;;;;;25.67;34.74;99670.02;1754986;80;20250;-78
2021/05/14 12:16:09;;;;;;;;;;;;;;;25.71;34.76;99662.89;1756246;80;20120;-78
2021/05/14 12:18:47;;;;;;;;;;;;;;;25.73;34.56;99670.27;1751959;80;20183;-76
2021/05/14 12:21:32;;;;;;;;;;;;;;;25.78;34.01;99670.29;1744688;80;20163;-76
2021/05/14 12:24:12;;;;;;;;;;;;;;;25.82;33.89;99671.38;1744513;80;20357;-76
2021/05/14 12:26:39;;;;;;;;;;;;;;;25.89;32.65;99660.95;1749454;80;20625;-77
2021/05/14 12:29:26;;;;;;;;;;;;;;;25.98;33.00;99651.56;1741711;81;21052;-79
2021/05/14 12:31:56;;;;;;;;;;;;;;;26.04;32.87;99660.08;1725501;80;20341;-78
2021/05/14 12:34:23;;;;;;;;;;;;;;;26.10;32.98;99651.27;1740605;80;20543;-76
2021/05/14 12:36:53;;;;;;;;;;;;;;;26.12;33.27;99651.83;1744740;80;20244;-77
2021/05/14 12:39:19;;;;;;;;;;;;;;;26.14;33.01;99646.30;1755829;80;20548;-76
2021/05/14 12:41:52;;;;;;;;;;;;;;;26.15;32.84;99645.20;1754369;80;20316;-77
2021/05/14 12:44:21;;;;;;;;;;;;;;;26.17;32.69;99648.50;1744869;80;20489;-77
2021/05/14 12:47:11;;;;;;;;;;;;;;;26.19;32.72;99653.70;1748917;80;20702;-77
2021/05/14 12:49:48;;;;;;;;;;;;;;;26.18;32.62;99651.51;1749676;80;20678;-76
2021/05/14 12:52:28;;;;;;;;;;;;;;;26.16;32.15;99649.61;1753948;80;20280;-75
2021/05/14 12:55:06;;;;;;;;;;;;;;;26.18;31.68;99654.81;1758983;80;20260;-76
2021/05/14 12:57:46;;;;;;;;;;;;;;;26.22;31.52;99654.52;1751661;80;20575;-77
2021/05/14 13:00:14;;;;;;;;;;;;;;;26.24;31.24;99657.23;1740525;80;20673;-75
2021/05/14 13:02:40;;;;;;;;;;;;;;;26.25;31.44;99652.04;1753243;79;20225;-77
2021/05/14 13:05:08;;;;;;;;;;;;;;;26.28;30.89;99653.38;1748461;80;20347;-77
2021/05/14 13:07:34;;;;;;;;;;;;;;;26.31;31.02;99652.28;1756304;80;20496;-77